sensor_id;sensor_type;location;lat;lon;timestamp;P1;durP1;ratioP1;P2;durP2;ratioP2
11016;SDS011;54687;50.800;6.772;2023-05-07T00:01:11;3.47;;;3.17;;
11016;SDS011;54687;50.800;6.772;2023-05-07T00:03:37;3.38;;;3.08;;
11016;SDS011;54687;50.800;6.772;2023-05-07T00:06:04;3.63;;;2.88;;
11016;SDS011;54687;50.800;6.772;2023-05-07T00:08:31;3.25;;;3.05;;
11016;SDS011;54687;50.800;6.772;2023-05-07T00:10:59;3.50;;;3.20;;
11016;SDS011;54687;50.800;6.772;2023-05-07T00:13:25;3.33;;;3.10;;
11016;SDS011;54687;50.800;6.772;2023-05-07T00:15:52;4.05;;;3.72;;
11016;SDS011;54687;50.800;6.772;2023-05-07T00:18:18;3.70;;;3.22;;
11016;SDS011;54687;50.800;6.772;2023-05-07T00:20:47;3.55;;;3.25;;
11016;SDS011;54687;50.800;6.772;2023-05-07T00:23:14;3.50;;;3.20;;
11016;SDS011;54687;50.800;6.772;2023-05-07T00:25:40;3.50;;;3.20;;
11016;SDS011;54687;50.800;6.772;2023-05-07T00:28:08;3.50;;;3.20;;
11016;SDS011;54687;50.800;6.772;2023-05-07T00:30:35;3.67;;;3.38;;
11016;SDS011;54687;50.800;6.772;2023-05-07T00:33:01;3.70;;;3.40;;
11016;SDS011;54687;50.800;6.772;2023-05-07T00:35:28;3.50;;;3.20;;
11016;SDS011;54687;50.800;6.772;2023-05-07T00:37:54;5.95;;;3.80;;
11016;SDS011;54687;50.800;6.772;2023-05-07T00:40:21;4.18;;;3.83;;
11016;SDS011;54687;50.800;6.772;2023-05-07T00:42:47;4.65;;;4.18;;
11016;SDS011;54687;50.800;6.772;2023-05-07T00:45:16;3.78;;;3.47;;
11016;SDS011;54687;50.800;6.772;2023-05-07T00:47:42;4.15;;;3.78;;
11016;SDS011;54687;50.800;6.772;2023-05-07T00:50:09;3.90;;;3.60;;
11016;SDS011;54687;50.800;6.772;2023-05-07T00:52:37;3.92;;;3.63;;
11016;SDS011;54687;50.800;6.772;2023-05-07T00:55:04;4.55;;;4.15;;
11016;SDS011;54687;50.800;6.772;2023-05-07T00:57:33;4.03;;;3.67;;
11016;SDS011;54687;50.800;6.772;2023-05-07T01:00:03;3.80;;;3.50;;
11016;SDS011;54687;50.800;6.772;2023-05-07T01:02:32;4.47;;;4.07;;
11016;SDS011;54687;50.800;6.772;2023-05-07T01:04:58;3.92;;;3.63;;
11016;SDS011;54687;50.800;6.772;2023-05-07T01:07:26;4.28;;;3.90;;
11016;SDS011;54687;50.800;6.772;2023-05-07T01:09:53;4.82;;;3.70;;
11016;SDS011;54687;50.800;6.772;2023-05-07T01:12:20;4.03;;;3.70;;
11016;SDS011;54687;50.800;6.772;2023-05-07T01:14:47;3.85;;;3.55;;
11016;SDS011;54687;50.800;6.772;2023-05-07T01:17:14;4.30;;;4.00;;
11016;SDS011;54687;50.800;6.772;2023-05-07T01:19:42;6.55;;;4.68;;
11016;SDS011;54687;50.800;6.772;2023-05-07T01:22:10;5.30;;;4.80;;
11016;SDS011;54687;50.800;6.772;2023-05-07T01:24:38;5.10;;;4.70;;
11016;SDS011;54687;50.800;6.772;2023-05-07T01:27:05;5.03;;;4.63;;
11016;SDS011;54687;50.800;6.772;2023-05-07T01:29:31;5.85;;;5.30;;
11016;SDS011;54687;50.800;6.772;2023-05-07T01:31:59;7.85;;;7.15;;
11016;SDS011;54687;50.800;6.772;2023-05-07T01:34:27;7.53;;;6.82;;
11016;SDS011;54687;50.800;6.772;2023-05-07T01:36:56;7.90;;;7.22;;
11016;SDS011;54687;50.800;6.772;2023-05-07T01:39:25;7.28;;;6.68;;
11016;SDS011;54687;50.800;6.772;2023-05-07T01:41:54;9.45;;;8.65;;
11016;SDS011;54687;50.800;6.772;2023-05-07T01:44:21;9.75;;;8.85;;
11016;SDS011;54687;50.800;6.772;2023-05-07T01:46:48;11.20;;;9.85;;
11016;SDS011;54687;50.800;6.772;2023-05-07T01:49:15;10.82;;;9.93;;
11016;SDS011;54687;50.800;6.772;2023-05-07T01:51:42;9.32;;;8.52;;
11016;SDS011;54687;50.800;6.772;2023-05-07T01:54:10;10.55;;;9.55;;
11016;SDS011;54687;50.800;6.772;2023-05-07T01:56:36;10.80;;;9.80;;
11016;SDS011;54687;50.800;6.772;2023-05-07T01:59:04;9.80;;;9.00;;
11016;SDS011;54687;50.800;6.772;2023-05-07T02:01:31;11.20;;;10.18;;
11016;SDS011;54687;50.800;6.772;2023-05-07T02:03:57;10.32;;;9.43;;
11016;SDS011;54687;50.800;6.772;2023-05-07T02:06:24;9.25;;;8.45;;
11016;SDS011;54687;50.800;6.772;2023-05-07T02:08:50;8.93;;;8.13;;
11016;SDS011;54687;50.800;6.772;2023-05-07T02:11:17;8.85;;;8.05;;
11016;SDS011;54687;50.800;6.772;2023-05-07T02:13:44;7.20;;;6.60;;
11016;SDS011;54687;50.800;6.772;2023-05-07T02:16:11;8.40;;;6.97;;
11016;SDS011;54687;50.800;6.772;2023-05-07T02:18:39;8.43;;;6.57;;
11016;SDS011;54687;50.800;6.772;2023-05-07T02:21:05;6.57;;;5.97;;
11016;SDS011;54687;50.800;6.772;2023-05-07T02:23:32;7.32;;;6.63;;
11016;SDS011;54687;50.800;6.772;2023-05-07T02:25:59;7.97;;;7.28;;
11016;SDS011;54687;50.800;6.772;2023-05-07T02:28:25;7.03;;;6.43;;
11016;SDS011;54687;50.800;6.772;2023-05-07T02:30:52;8.27;;;7.57;;
11016;SDS011;54687;50.800;6.772;2023-05-07T02:33:20;8.07;;;7.22;;
11016;SDS011;54687;50.800;6.772;2023-05-07T02:35:47;7.90;;;7.10;;
11016;SDS011;54687;50.800;6.772;2023-05-07T02:38:13;7.82;;;7.13;;
11016;SDS011;54687;50.800;6.772;2023-05-07T02:40:40;8.45;;;7.68;;
11016;SDS011;54687;50.800;6.772;2023-05-07T02:43:06;8.35;;;7.57;;
11016;SDS011;54687;50.800;6.772;2023-05-07T02:45:33;8.65;;;7.85;;
11016;SDS011;54687;50.800;6.772;2023-05-07T02:48:00;8.15;;;7.45;;
11016;SDS011;54687;50.800;6.772;2023-05-07T02:50:28;8.15;;;7.45;;
11016;SDS011;54687;50.800;6.772;2023-05-07T02:52:54;7.47;;;6.82;;
11016;SDS011;54687;50.800;6.772;2023-05-07T02:55:21;10.68;;;6.65;;
11016;SDS011;54687;50.800;6.772;2023-05-07T02:57:48;7.38;;;6.68;;
11016;SDS011;54687;50.800;6.772;2023-05-07T03:00:15;6.25;;;5.75;;
11016;SDS011;54687;50.800;6.772;2023-05-07T03:02:43;5.57;;;5.07;;
11016;SDS011;54687;50.800;6.772;2023-05-07T03:05:10;5.55;;;5.05;;
11016;SDS011;54687;50.800;6.772;2023-05-07T03:07:39;6.65;;;5.10;;
11016;SDS011;54687;50.800;6.772;2023-05-07T03:10:06;5.30;;;4.80;;
11016;SDS011;54687;50.800;6.772;2023-05-07T03:12:33;5.35;;;4.95;;
11016;SDS011;54687;50.800;6.772;2023-05-07T03:14:59;4.70;;;4.25;;
11016;SDS011;54687;50.800;6.772;2023-05-07T03:17:26;6.32;;;4.20;;
11016;SDS011;54687;50.800;6.772;2023-05-07T03:19:53;4.20;;;3.80;;
11016;SDS011;54687;50.800;6.772;2023-05-07T03:22:20;4.95;;;4.55;;
11016;SDS011;54687;50.800;6.772;2023-05-07T03:24:48;6.03;;;4.93;;
11016;SDS011;54687;50.800;6.772;2023-05-07T03:27:14;6.60;;;6.00;;
11016;SDS011;54687;50.800;6.772;2023-05-07T03:29:41;7.50;;;6.80;;
11016;SDS011;54687;50.800;6.772;2023-05-07T03:32:07;7.18;;;6.57;;
11016;SDS011;54687;50.800;6.772;2023-05-07T03:34:34;6.78;;;6.18;;
11016;SDS011;54687;50.800;6.772;2023-05-07T03:37:01;7.00;;;6.40;;
11016;SDS011;54687;50.800;6.772;2023-05-07T03:39:27;7.47;;;6.78;;
11016;SDS011;54687;50.800;6.772;2023-05-07T03:41:55;8.13;;;7.32;;
11016;SDS011;54687;50.800;6.772;2023-05-07T03:44:22;8.52;;;7.78;;
11016;SDS011;54687;50.800;6.772;2023-05-07T03:46:48;8.63;;;7.85;;
11016;SDS011;54687;50.800;6.772;2023-05-07T03:49:15;9.60;;;8.10;;
11016;SDS011;54687;50.800;6.772;2023-05-07T03:51:42;9.95;;;9.05;;
11016;SDS011;54687;50.800;6.772;2023-05-07T03:54:08;8.63;;;7.82;;
11016;SDS011;54687;50.800;6.772;2023-05-07T03:56:35;8.50;;;7.80;;
11016;SDS011;54687;50.800;6.772;2023-05-07T03:59:03;9.07;;;8.27;;
11016;SDS011;54687;50.800;6.772;2023-05-07T04:01:29;9.38;;;8.43;;
11016;SDS011;54687;50.800;6.772;2023-05-07T04:03:56;8.80;;;8.00;;
11016;SDS011;54687;50.800;6.772;2023-05-07T04:06:22;7.85;;;7.15;;
11016;SDS011;54687;50.800;6.772;2023-05-07T04:08:49;7.57;;;6.88;;
11016;SDS011;54687;50.800;6.772;2023-05-07T04:11:15;7.25;;;6.65;;
11016;SDS011;54687;50.800;6.772;2023-05-07T04:13:42;10.63;;;7.30;;
11016;SDS011;54687;50.800;6.772;2023-05-07T04:16:10;12.75;;;10.27;;
11016;SDS011;54687;50.800;6.772;2023-05-07T04:18:37;7.55;;;6.85;;
11016;SDS011;54687;50.800;6.772;2023-05-07T04:21:04;7.40;;;6.70;;
11016;SDS011;54687;50.800;6.772;2023-05-07T04:23:30;8.20;;;6.90;;
11016;SDS011;54687;50.800;6.772;2023-05-07T04:25:57;8.65;;;6.80;;
11016;SDS011;54687;50.800;6.772;2023-05-07T04:28:23;7.88;;;7.03;;
11016;SDS011;54687;50.800;6.772;2023-05-07T04:30:50;7.00;;;6.40;;
11016;SDS011;54687;50.800;6.772;2023-05-07T04:33:18;6.75;;;6.15;;
11016;SDS011;54687;50.800;6.772;2023-05-07T04:35:45;6.90;;;6.32;;
11016;SDS011;54687;50.800;6.772;2023-05-07T04:38:11;9.70;;;6.50;;
11016;SDS011;54687;50.800;6.772;2023-05-07T04:40:38;8.00;;;7.30;;
11016;SDS011;54687;50.800;6.772;2023-05-07T04:43:05;7.78;;;6.97;;
11016;SDS011;54687;50.800;6.772;2023-05-07T04:45:32;7.28;;;6.57;;
11016;SDS011;54687;50.800;6.772;2023-05-07T04:47:59;6.80;;;6.10;;
11016;SDS011;54687;50.800;6.772;2023-05-07T04:50:27;7.25;;;6.63;;
11016;SDS011;54687;50.800;6.772;2023-05-07T04:52:53;6.55;;;5.95;;
11016;SDS011;54687;50.800;6.772;2023-05-07T04:55:20;5.95;;;5.43;;
11016;SDS011;54687;50.800;6.772;2023-05-07T04:57:47;5.80;;;5.30;;
11016;SDS011;54687;50.800;6.772;2023-05-07T05:00:13;6.53;;;5.80;;
11016;SDS011;54687;50.800;6.772;2023-05-07T05:02:41;6.22;;;5.72;;
11016;SDS011;54687;50.800;6.772;2023-05-07T05:05:08;5.80;;;5.25;;
11016;SDS011;54687;50.800;6.772;2023-05-07T05:07:36;6.35;;;5.53;;
11016;SDS011;54687;50.800;6.772;2023-05-07T05:10:04;10.35;;;5.78;;
11016;SDS011;54687;50.800;6.772;2023-05-07T05:12:31;9.02;;;5.70;;
11016;SDS011;54687;50.800;6.772;2023-05-07T05:14:58;5.07;;;4.57;;
11016;SDS011;54687;50.800;6.772;2023-05-07T05:17:25;4.55;;;4.15;;
11016;SDS011;54687;50.800;6.772;2023-05-07T05:19:51;5.10;;;4.10;;
11016;SDS011;54687;50.800;6.772;2023-05-07T05:22:18;10.15;;;5.97;;
11016;SDS011;54687;50.800;6.772;2023-05-07T05:24:45;6.40;;;4.13;;
11016;SDS011;54687;50.800;6.772;2023-05-07T05:27:12;4.10;;;3.70;;
11016;SDS011;54687;50.800;6.772;2023-05-07T05:29:39;3.60;;;3.30;;
11016;SDS011;54687;50.800;6.772;2023-05-07T05:32:05;4.07;;;3.72;;
11016;SDS011;54687;50.800;6.772;2023-05-07T05:34:32;15.93;;;7.50;;
11016;SDS011;54687;50.800;6.772;2023-05-07T05:36:59;4.68;;;4.00;;
11016;SDS011;54687;50.800;6.772;2023-05-07T05:39:26;4.32;;;3.92;;
11016;SDS011;54687;50.800;6.772;2023-05-07T05:41:53;4.78;;;4.35;;
11016;SDS011;54687;50.800;6.772;2023-05-07T05:44:20;4.10;;;3.70;;
11016;SDS011;54687;50.800;6.772;2023-05-07T05:46:46;6.68;;;4.20;;
11016;SDS011;54687;50.800;6.772;2023-05-07T05:49:14;4.85;;;4.05;;
11016;SDS011;54687;50.800;6.772;2023-05-07T05:51:41;4.25;;;3.85;;
11016;SDS011;54687;50.800;6.772;2023-05-07T05:54:09;5.75;;;4.10;;
11016;SDS011;54687;50.800;6.772;2023-05-07T05:56:36;5.05;;;4.45;;
11016;SDS011;54687;50.800;6.772;2023-05-07T05:59:04;5.80;;;5.20;;
11016;SDS011;54687;50.800;6.772;2023-05-07T06:01:31;4.80;;;4.35;;
11016;SDS011;54687;50.800;6.772;2023-05-07T06:03:57;5.05;;;4.65;;
11016;SDS011;54687;50.800;6.772;2023-05-07T06:06:24;5.43;;;5.03;;
11016;SDS011;54687;50.800;6.772;2023-05-07T06:08:51;6.28;;;5.68;;
11016;SDS011;54687;50.800;6.772;2023-05-07T06:11:17;5.53;;;5.10;;
11016;SDS011;54687;50.800;6.772;2023-05-07T06:13:44;5.75;;;5.25;;
11016;SDS011;54687;50.800;6.772;2023-05-07T06:16:11;5.53;;;4.90;;
11016;SDS011;54687;50.800;6.772;2023-05-07T06:18:40;5.47;;;5.00;;
11016;SDS011;54687;50.800;6.772;2023-05-07T06:21:06;5.35;;;4.85;;
11016;SDS011;54687;50.800;6.772;2023-05-07T06:23:33;5.07;;;4.60;;
11016;SDS011;54687;50.800;6.772;2023-05-07T06:26:00;5.70;;;5.20;;
11016;SDS011;54687;50.800;6.772;2023-05-07T06:28:26;7.47;;;5.55;;
11016;SDS011;54687;50.800;6.772;2023-05-07T06:30:56;5.80;;;5.20;;
11016;SDS011;54687;50.800;6.772;2023-05-07T06:33:39;5.55;;;4.93;;
11016;SDS011;54687;50.800;6.772;2023-05-07T06:36:06;5.30;;;4.90;;
11016;SDS011;54687;50.800;6.772;2023-05-07T06:38:32;5.60;;;5.10;;
11016;SDS011;54687;50.800;6.772;2023-05-07T06:40:59;5.20;;;4.78;;
11016;SDS011;54687;50.800;6.772;2023-05-07T06:43:25;6.93;;;4.90;;
11016;SDS011;54687;50.800;6.772;2023-05-07T06:45:52;6.18;;;4.80;;
11016;SDS011;54687;50.800;6.772;2023-05-07T06:48:20;4.85;;;4.45;;
11016;SDS011;54687;50.800;6.772;2023-05-07T06:50:46;4.55;;;4.13;;
11016;SDS011;54687;50.800;6.772;2023-05-07T06:53:13;4.55;;;4.15;;
11016;SDS011;54687;50.800;6.772;2023-05-07T06:55:39;4.15;;;3.85;;
11016;SDS011;54687;50.800;6.772;2023-05-07T06:58:06;4.00;;;3.70;;
11016;SDS011;54687;50.800;6.772;2023-05-07T07:00:33;5.03;;;3.60;;
11016;SDS011;54687;50.800;6.772;2023-05-07T07:03:00;4.55;;;4.15;;
11016;SDS011;54687;50.800;6.772;2023-05-07T07:05:28;4.38;;;3.60;;
11016;SDS011;54687;50.800;6.772;2023-05-07T07:07:54;3.75;;;3.38;;
11016;SDS011;54687;50.800;6.772;2023-05-07T07:10:21;3.30;;;3.00;;
11016;SDS011;54687;50.800;6.772;2023-05-07T07:12:48;3.40;;;3.10;;
11016;SDS011;54687;50.800;6.772;2023-05-07T07:15:15;3.47;;;3.08;;
11016;SDS011;54687;50.800;6.772;2023-05-07T07:17:42;4.45;;;3.35;;
11016;SDS011;54687;50.800;6.772;2023-05-07T07:20:09;4.50;;;2.92;;
11016;SDS011;54687;50.800;6.772;2023-05-07T07:22:38;3.50;;;3.20;;
11016;SDS011;54687;50.800;6.772;2023-05-07T07:25:05;4.82;;;3.60;;
11016;SDS011;54687;50.800;6.772;2023-05-07T07:27:32;8.63;;;4.60;;
11016;SDS011;54687;50.800;6.772;2023-05-07T07:29:58;4.07;;;3.78;;
11016;SDS011;54687;50.800;6.772;2023-05-07T07:32:25;3.67;;;3.03;;
11016;SDS011;54687;50.800;6.772;2023-05-07T07:34:53;3.90;;;3.28;;
11016;SDS011;54687;50.800;6.772;2023-05-07T07:37:20;4.25;;;2.78;;
11016;SDS011;54687;50.800;6.772;2023-05-07T07:39:48;2.65;;;2.20;;
11016;SDS011;54687;50.800;6.772;2023-05-07T07:42:15;3.85;;;2.20;;
11016;SDS011;54687;50.800;6.772;2023-05-07T07:44:41;4.80;;;3.13;;
11016;SDS011;54687;50.800;6.772;2023-05-07T07:47:08;2.60;;;2.28;;
11016;SDS011;54687;50.800;6.772;2023-05-07T07:49:36;2.60;;;2.40;;
11016;SDS011;54687;50.800;6.772;2023-05-07T07:52:03;2.60;;;2.40;;
11016;SDS011;54687;50.800;6.772;2023-05-07T07:54:30;2.78;;;2.40;;
11016;SDS011;54687;50.800;6.772;2023-05-07T07:56:57;3.58;;;2.67;;
11016;SDS011;54687;50.800;6.772;2023-05-07T07:59:24;2.40;;;2.20;;
11016;SDS011;54687;50.800;6.772;2023-05-07T08:01:51;3.55;;;2.42;;
11016;SDS011;54687;50.800;6.772;2023-05-07T08:04:23;2.22;;;2.08;;
11016;SDS011;54687;50.800;6.772;2023-05-07T08:06:50;2.70;;;2.40;;
11016;SDS011;54687;50.800;6.772;2023-05-07T08:09:16;3.47;;;2.60;;
11016;SDS011;54687;50.800;6.772;2023-05-07T08:11:43;2.40;;;2.20;;
11016;SDS011;54687;50.800;6.772;2023-05-07T08:14:11;2.80;;;2.35;;
11016;SDS011;54687;50.800;6.772;2023-05-07T08:16:38;2.67;;;2.47;;
11016;SDS011;54687;50.800;6.772;2023-05-07T08:19:04;3.22;;;2.80;;
11016;SDS011;54687;50.800;6.772;2023-05-07T08:21:31;3.08;;;2.78;;
11016;SDS011;54687;50.800;6.772;2023-05-07T08:23:58;3.28;;;2.72;;
11016;SDS011;54687;50.800;6.772;2023-05-07T08:26:24;3.40;;;3.10;;
11016;SDS011;54687;50.800;6.772;2023-05-07T08:28:51;3.42;;;3.10;;
11016;SDS011;54687;50.800;6.772;2023-05-07T08:31:19;3.60;;;2.92;;
11016;SDS011;54687;50.800;6.772;2023-05-07T08:33:46;3.08;;;2.83;;
11016;SDS011;54687;50.800;6.772;2023-05-07T08:36:12;3.20;;;2.90;;
11016;SDS011;54687;50.800;6.772;2023-05-07T08:38:39;3.10;;;2.70;;
11016;SDS011;54687;50.800;6.772;2023-05-07T08:41:09;2.95;;;2.70;;
11016;SDS011;54687;50.800;6.772;2023-05-07T08:43:36;2.95;;;2.75;;
11016;SDS011;54687;50.800;6.772;2023-05-07T08:46:05;2.78;;;2.58;;
11016;SDS011;54687;50.800;6.772;2023-05-07T08:48:33;3.15;;;2.67;;
11016;SDS011;54687;50.800;6.772;2023-05-07T08:51:02;4.15;;;2.67;;
11016;SDS011;54687;50.800;6.772;2023-05-07T08:53:29;2.35;;;2.20;;
11016;SDS011;54687;50.800;6.772;2023-05-07T08:55:56;3.45;;;2.63;;
11016;SDS011;54687;50.800;6.772;2023-05-07T08:58:22;3.13;;;2.80;;
11016;SDS011;54687;50.800;6.772;2023-05-07T09:00:49;2.97;;;2.45;;
11016;SDS011;54687;50.800;6.772;2023-05-07T09:03:18;2.60;;;2.40;;
11016;SDS011;54687;50.800;6.772;2023-05-07T09:05:48;3.13;;;2.20;;
11016;SDS011;54687;50.800;6.772;2023-05-07T09:08:14;3.33;;;2.25;;
11016;SDS011;54687;50.800;6.772;2023-05-07T09:10:41;2.90;;;2.70;;
11016;SDS011;54687;50.800;6.772;2023-05-07T09:13:08;3.15;;;2.50;;
11016;SDS011;54687;50.800;6.772;2023-05-07T09:15:38;2.90;;;2.30;;
11016;SDS011;54687;50.800;6.772;2023-05-07T09:18:04;2.83;;;2.55;;
11016;SDS011;54687;50.800;6.772;2023-05-07T09:20:31;2.20;;;2.00;;
11016;SDS011;54687;50.800;6.772;2023-05-07T09:22:59;5.28;;;3.47;;
11016;SDS011;54687;50.800;6.772;2023-05-07T09:25:28;3.45;;;2.67;;
11016;SDS011;54687;50.800;6.772;2023-05-07T09:27:57;2.40;;;2.20;;
11016;SDS011;54687;50.800;6.772;2023-05-07T09:30:27;3.60;;;2.00;;
11016;SDS011;54687;50.800;6.772;2023-05-07T09:32:54;3.08;;;2.63;;
11016;SDS011;54687;50.800;6.772;2023-05-07T09:35:21;2.80;;;2.53;;
11016;SDS011;54687;50.800;6.772;2023-05-07T09:37:49;4.57;;;2.50;;
11016;SDS011;54687;50.800;6.772;2023-05-07T09:40:23;2.38;;;2.22;;
11016;SDS011;54687;50.800;6.772;2023-05-07T09:42:51;2.95;;;2.63;;
11016;SDS011;54687;50.800;6.772;2023-05-07T09:45:21;3.10;;;2.80;;
11016;SDS011;54687;50.800;6.772;2023-05-07T09:47:49;3.20;;;2.85;;
11016;SDS011;54687;50.800;6.772;2023-05-07T09:50:19;3.03;;;2.83;;
11016;SDS011;54687;50.800;6.772;2023-05-07T09:52:50;3.03;;;2.80;;
11016;SDS011;54687;50.800;6.772;2023-05-07T09:55:18;3.92;;;3.30;;
11016;SDS011;54687;50.800;6.772;2023-05-07T09:57:48;2.60;;;2.40;;
11016;SDS011;54687;50.800;6.772;2023-05-07T10:00:16;3.03;;;2.60;;
11016;SDS011;54687;50.800;6.772;2023-05-07T10:02:44;2.70;;;2.50;;
11016;SDS011;54687;50.800;6.772;2023-05-07T10:05:14;2.72;;;2.53;;
11016;SDS011;54687;50.800;6.772;2023-05-07T10:07:41;3.50;;;2.72;;
11016;SDS011;54687;50.800;6.772;2023-05-07T10:10:08;2.70;;;2.50;;
11016;SDS011;54687;50.800;6.772;2023-05-07T10:12:35;2.97;;;2.70;;
11016;SDS011;54687;50.800;6.772;2023-05-07T10:15:06;6.68;;;4.00;;
11016;SDS011;54687;50.800;6.772;2023-05-07T10:17:35;2.83;;;2.63;;
11016;SDS011;54687;50.800;6.772;2023-05-07T10:20:03;4.90;;;2.72;;
11016;SDS011;54687;50.800;6.772;2023-05-07T10:22:30;2.60;;;2.40;;
11016;SDS011;54687;50.800;6.772;2023-05-07T10:25:01;3.05;;;2.30;;
11016;SDS011;54687;50.800;6.772;2023-05-07T10:27:30;4.10;;;2.45;;
11016;SDS011;54687;50.800;6.772;2023-05-07T10:29:59;2.70;;;2.50;;
11016;SDS011;54687;50.800;6.772;2023-05-07T10:32:37;2.90;;;2.28;;
11016;SDS011;54687;50.800;6.772;2023-05-07T10:35:06;2.80;;;2.30;;
11016;SDS011;54687;50.800;6.772;2023-05-07T10:37:38;3.25;;;2.60;;
11016;SDS011;54687;50.800;6.772;2023-05-07T10:40:06;2.90;;;2.60;;
11016;SDS011;54687;50.800;6.772;2023-05-07T10:42:34;2.70;;;2.47;;
11016;SDS011;54687;50.800;6.772;2023-05-07T10:45:12;3.53;;;2.58;;
11016;SDS011;54687;50.800;6.772;2023-05-07T10:50:40;2.47;;;2.28;;
11016;SDS011;54687;50.800;6.772;2023-05-07T10:53:21;3.20;;;2.78;;
11016;SDS011;54687;50.800;6.772;2023-05-07T10:55:51;3.95;;;2.40;;
11016;SDS011;54687;50.800;6.772;2023-05-07T10:58:38;2.58;;;2.38;;
11016;SDS011;54687;50.800;6.772;2023-05-07T11:01:04;2.50;;;2.30;;
11016;SDS011;54687;50.800;6.772;2023-05-07T11:03:31;4.30;;;2.50;;
11016;SDS011;54687;50.800;6.772;2023-05-07T11:06:11;3.50;;;2.20;;
11016;SDS011;54687;50.800;6.772;2023-05-07T11:08:52;3.72;;;3.33;;
11016;SDS011;54687;50.800;6.772;2023-05-07T11:14:13;3.00;;;2.22;;
11016;SDS011;54687;50.800;6.772;2023-05-07T11:16:40;4.35;;;2.40;;
11016;SDS011;54687;50.800;6.772;2023-05-07T11:19:08;3.33;;;2.30;;
11016;SDS011;54687;50.800;6.772;2023-05-07T11:21:36;3.55;;;2.30;;
11016;SDS011;54687;50.800;6.772;2023-05-07T11:24:04;4.18;;;3.30;;
11016;SDS011;54687;50.800;6.772;2023-05-07T11:26:41;2.95;;;2.45;;
11016;SDS011;54687;50.800;6.772;2023-05-07T11:29:13;2.38;;;2.17;;
11016;SDS011;54687;50.800;6.772;2023-05-07T11:31:41;2.42;;;2.25;;
11016;SDS011;54687;50.800;6.772;2023-05-07T11:34:08;2.95;;;2.35;;
11016;SDS011;54687;50.800;6.772;2023-05-07T11:36:40;2.22;;;2.00;;
11016;SDS011;54687;50.800;6.772;2023-05-07T11:39:24;2.80;;;2.10;;
11016;SDS011;54687;50.800;6.772;2023-05-07T11:41:52;2.83;;;2.63;;
11016;SDS011;54687;50.800;6.772;2023-05-07T11:44:19;2.67;;;1.90;;
11016;SDS011;54687;50.800;6.772;2023-05-07T11:46:45;2.85;;;2.10;;
11016;SDS011;54687;50.800;6.772;2023-05-07T11:49:12;3.88;;;2.47;;
11016;SDS011;54687;50.800;6.772;2023-05-07T11:51:40;2.20;;;2.00;;
11016;SDS011;54687;50.800;6.772;2023-05-07T11:54:07;2.97;;;2.53;;
11016;SDS011;54687;50.800;6.772;2023-05-07T11:56:36;6.47;;;4.20;;
11016;SDS011;54687;50.800;6.772;2023-05-07T11:59:03;6.63;;;4.00;;
11016;SDS011;54687;50.800;6.772;2023-05-07T12:01:30;14.82;;;5.90;;
11016;SDS011;54687;50.800;6.772;2023-05-07T12:03:57;5.78;;;3.47;;
11016;SDS011;54687;50.800;6.772;2023-05-07T12:06:23;2.88;;;2.67;;
11016;SDS011;54687;50.800;6.772;2023-05-07T12:08:52;3.33;;;2.60;;
11016;SDS011;54687;50.800;6.772;2023-05-07T12:11:21;3.53;;;3.22;;
11016;SDS011;54687;50.800;6.772;2023-05-07T12:13:50;3.25;;;2.53;;
11016;SDS011;54687;50.800;6.772;2023-05-07T12:16:17;2.70;;;2.17;;
11016;SDS011;54687;50.800;6.772;2023-05-07T12:18:44;2.15;;;2.05;;
11016;SDS011;54687;50.800;6.772;2023-05-07T12:21:11;2.00;;;1.90;;
11016;SDS011;54687;50.800;6.772;2023-05-07T12:23:38;2.95;;;2.60;;
11016;SDS011;54687;50.800;6.772;2023-05-07T12:26:06;2.70;;;1.92;;
11016;SDS011;54687;50.800;6.772;2023-05-07T12:28:36;3.13;;;2.13;;
11016;SDS011;54687;50.800;6.772;2023-05-07T12:31:03;2.00;;;1.90;;
11016;SDS011;54687;50.800;6.772;2023-05-07T12:33:31;3.05;;;2.45;;
11016;SDS011;54687;50.800;6.772;2023-05-07T12:35:58;2.20;;;2.00;;
11016;SDS011;54687;50.800;6.772;2023-05-07T12:38:33;2.50;;;2.30;;
11016;SDS011;54687;50.800;6.772;2023-05-07T12:41:02;2.53;;;2.35;;
11016;SDS011;54687;50.800;6.772;2023-05-07T12:43:30;4.82;;;2.58;;
11016;SDS011;54687;50.800;6.772;2023-05-07T12:45:57;2.50;;;2.30;;
11016;SDS011;54687;50.800;6.772;2023-05-07T12:48:31;5.05;;;2.28;;
11016;SDS011;54687;50.800;6.772;2023-05-07T12:50:59;2.92;;;2.15;;
11016;SDS011;54687;50.800;6.772;2023-05-07T12:53:27;3.28;;;2.13;;
11016;SDS011;54687;50.800;6.772;2023-05-07T12:55:54;2.88;;;2.30;;
11016;SDS011;54687;50.800;6.772;2023-05-07T12:58:24;3.05;;;2.72;;
11016;SDS011;54687;50.800;6.772;2023-05-07T13:00:54;3.63;;;3.13;;
11016;SDS011;54687;50.800;6.772;2023-05-07T13:03:25;5.93;;;3.20;;
11016;SDS011;54687;50.800;6.772;2023-05-07T13:05:54;5.13;;;3.45;;
11016;SDS011;54687;50.800;6.772;2023-05-07T13:08:25;4.68;;;3.30;;
11016;SDS011;54687;50.800;6.772;2023-05-07T13:10:53;5.85;;;3.90;;
11016;SDS011;54687;50.800;6.772;2023-05-07T13:13:20;5.53;;;4.05;;
11016;SDS011;54687;50.800;6.772;2023-05-07T13:15:46;4.72;;;4.18;;
11016;SDS011;54687;50.800;6.772;2023-05-07T13:18:14;4.35;;;3.95;;
11016;SDS011;54687;50.800;6.772;2023-05-07T13:20:41;5.05;;;4.53;;
11016;SDS011;54687;50.800;6.772;2023-05-07T13:23:07;4.13;;;3.72;;
11016;SDS011;54687;50.800;6.772;2023-05-07T13:25:34;4.15;;;3.40;;
11016;SDS011;54687;50.800;6.772;2023-05-07T13:28:00;5.28;;;4.10;;
11016;SDS011;54687;50.800;6.772;2023-05-07T13:30:27;4.10;;;3.58;;
11016;SDS011;54687;50.800;6.772;2023-05-07T13:32:55;3.33;;;3.03;;
11016;SDS011;54687;50.800;6.772;2023-05-07T13:35:23;4.38;;;3.38;;
11016;SDS011;54687;50.800;6.772;2023-05-07T13:37:50;3.97;;;3.03;;
11016;SDS011;54687;50.800;6.772;2023-05-07T13:40:18;3.38;;;3.08;;
11016;SDS011;54687;50.800;6.772;2023-05-07T13:42:44;3.15;;;2.95;;
11016;SDS011;54687;50.800;6.772;2023-05-07T13:45:11;3.03;;;2.72;;
11016;SDS011;54687;50.800;6.772;2023-05-07T13:47:39;4.10;;;3.40;;
11016;SDS011;54687;50.800;6.772;2023-05-07T13:50:06;3.38;;;3.08;;
11016;SDS011;54687;50.800;6.772;2023-05-07T13:52:35;5.18;;;3.45;;
11016;SDS011;54687;50.800;6.772;2023-05-07T13:55:02;3.97;;;3.20;;
11016;SDS011;54687;50.800;6.772;2023-05-07T13:57:29;3.45;;;3.15;;
11016;SDS011;54687;50.800;6.772;2023-05-07T13:59:55;3.83;;;3.50;;
11016;SDS011;54687;50.800;6.772;2023-05-07T14:02:22;3.58;;;3.22;;
11016;SDS011;54687;50.800;6.772;2023-05-07T14:04:49;6.03;;;4.40;;
11016;SDS011;54687;50.800;6.772;2023-05-07T14:07:15;6.43;;;4.85;;
11016;SDS011;54687;50.800;6.772;2023-05-07T14:09:43;5.25;;;4.78;;
11016;SDS011;54687;50.800;6.772;2023-05-07T14:12:10;4.28;;;3.97;;
11016;SDS011;54687;50.800;6.772;2023-05-07T14:14:37;5.68;;;4.60;;
11016;SDS011;54687;50.800;6.772;2023-05-07T14:17:03;5.03;;;4.55;;
11016;SDS011;54687;50.800;6.772;2023-05-07T14:19:30;4.63;;;4.22;;
11016;SDS011;54687;50.800;6.772;2023-05-07T14:21:56;8.32;;;5.55;;
11016;SDS011;54687;50.800;6.772;2023-05-07T14:24:23;5.75;;;4.57;;
11016;SDS011;54687;50.800;6.772;2023-05-07T14:26:52;4.63;;;4.22;;
11016;SDS011;54687;50.800;6.772;2023-05-07T14:29:18;5.38;;;4.80;;
11016;SDS011;54687;50.800;6.772;2023-05-07T14:31:45;4.97;;;4.47;;
11016;SDS011;54687;50.800;6.772;2023-05-07T14:34:12;4.03;;;3.63;;
11016;SDS011;54687;50.800;6.772;2023-05-07T14:36:38;3.63;;;3.10;;
11016;SDS011;54687;50.800;6.772;2023-05-07T14:39:05;2.95;;;2.75;;
11016;SDS011;54687;50.800;6.772;2023-05-07T14:41:31;4.85;;;3.53;;
11016;SDS011;54687;50.800;6.772;2023-05-07T14:43:59;4.80;;;2.90;;
11016;SDS011;54687;50.800;6.772;2023-05-07T14:46:26;3.08;;;2.88;;
11016;SDS011;54687;50.800;6.772;2023-05-07T14:48:54;3.30;;;3.00;;
11016;SDS011;54687;50.800;6.772;2023-05-07T14:51:20;5.25;;;2.92;;
11016;SDS011;54687;50.800;6.772;2023-05-07T14:53:47;4.07;;;2.97;;
11016;SDS011;54687;50.800;6.772;2023-05-07T14:56:13;6.15;;;3.42;;